createdAt,value
2019-04-14T08:12:03.779Z,82.33
2019-04-14T08:41:38.620Z,80.88
2019-04-14T09:14:17.664Z,79.33
2019-04-14T10:22:43.382Z,76.60
2019-04-14T10:25:56.351Z,76.80
2019-04-14T10:29:05.822Z,75.79
2019-04-14T10:31:46.894Z,76.24
2019-04-14T10:34:40.650Z,77.64
2019-04-14T10:41:29.943Z,77.85
2019-04-14T10:44:44.436Z,80.88
2019-04-14T10:47:40.489Z,78.94
2019-04-14T10:50:30.203Z,77.72
2019-04-14T10:57:22.494Z,77.61
2019-04-14T11:01:07.555Z,78.31
2019-04-14T11:14:13.147Z,79.07
2019-04-14T11:17:05.112Z,80.36
2019-04-14T11:19:55.427Z,80.71
2019-04-14T11:23:33.277Z,83.65
2019-04-14T11:26:25.846Z,82.87
2019-04-14T11:29:20.528Z,83.05
2019-04-14T11:32:18.996Z,83.42
2019-04-14T11:35:19.564Z,84.70
2019-04-14T11:38:19.479Z,84.12
2019-04-14T11:40:56.355Z,84.76
2019-04-14T11:43:35.360Z,82.80
2019-04-14T11:46:16.745Z,79.22
2019-04-14T11:49:14.434Z,79.59
2019-04-14T11:51:55.153Z,82.75
2019-04-14T11:54:22.456Z,82.81
2019-04-14T11:56:56.468Z,79.95
2019-04-14T12:03:02.953Z,80.82
2019-04-14T12:05:58.247Z,81.07
2019-04-14T12:08:50.552Z,81.76
2019-04-14T12:14:41.636Z,82.83
2019-04-14T12:17:15.217Z,80.67
2019-04-14T12:20:02.035Z,79.41
2019-04-14T12:26:11.155Z,81.63
2019-04-14T12:33:02.107Z,81.03
2019-04-14T12:35:36.890Z,81.12
2019-04-14T12:38:31.354Z,80.59
2019-04-14T12:41:19.786Z,80.90
2019-04-14T12:44:21.430Z,80.65
2019-04-14T12:47:10.180Z,80.90
2019-04-14T12:50:29.118Z,79.68
2019-04-14T12:53:36.640Z,79.29
2019-04-14T12:56:22.071Z,78.43
2019-04-14T13:03:05.505Z,78.54
2019-04-14T13:05:49.200Z,80.89
2019-04-14T13:08:47.720Z,81.82
2019-04-14T13:11:36.810Z,81.97
2019-04-14T13:14:34.297Z,83.12
2019-04-14T13:17:12.872Z,82.53
2019-04-14T13:19:57.953Z,81.18
2019-04-14T13:22:40.381Z,81.31
2019-04-14T13:25:39.192Z,80.85
2019-04-14T13:28:17.843Z,82.76
2019-04-14T13:30:52.993Z,82.37
2019-04-14T13:33:24.888Z,83.62
2019-04-14T13:35:59.084Z,83.69
2019-04-14T13:38:33.811Z,84.95
2019-04-14T13:41:08.158Z,85.52
2019-04-14T13:43:47.050Z,85.92
2019-04-14T13:46:27.330Z,84.91
2019-04-14T13:49:04.036Z,85.38
2019-04-14T13:51:38.004Z,87.16
2019-04-14T13:54:37.707Z,83.96
2019-04-14T13:57:47.293Z,84.73
2019-04-14T14:00:40.780Z,85.62
2019-04-14T14:03:40.207Z,86.74
2019-04-14T14:06:16.511Z,86.90
2019-04-14T14:08:56.291Z,86.64
2019-04-14T14:11:57.465Z,88.01
2019-04-14T14:14:45.562Z,88.02
2019-04-14T14:17:40.094Z,86.54
2019-04-14T14:20:22.405Z,87.51
2019-04-14T14:23:34.292Z,86.72
2019-04-14T14:26:20.067Z,87.59
2019-04-14T14:31:56.378Z,87.17
2019-04-14T14:34:46.560Z,87.17
2019-04-14T14:37:31.638Z,87.31
2019-04-14T14:40:07.067Z,87.59
2019-04-14T14:42:55.085Z,89.14
2019-04-14T14:45:50.925Z,88.86
2019-04-14T14:48:36.803Z,89.52
2019-04-14T14:55:07.994Z,89.38
2019-04-14T14:57:46.594Z,90.27
2019-04-14T15:00:35.263Z,89.98
2019-04-14T15:03:26.261Z,90.06
2019-04-14T15:06:05.843Z,90.96
2019-04-14T15:12:57.955Z,90.48
2019-04-14T15:15:56.414Z,90.35
2019-04-14T15:18:39.370Z,90.00
2019-04-14T15:24:56.075Z,90.00
2019-04-14T15:27:46.450Z,90.42
2019-04-14T15:41:05.276Z,90.72
2019-04-14T15:43:49.094Z,89.71
2019-04-14T15:46:25.066Z,89.21
2019-04-14T15:49:13.063Z,89.31
2019-04-14T16:49:24.351Z,91.10
2019-04-14T17:31:54.273Z,94.25
2019-04-14T17:35:19.647Z,94.62
2019-04-14T17:42:04.415Z,94.73
2019-04-14T18:20:55.948Z,97.87
2019-04-14T22:57:15.158Z,100.00
2019-04-14T23:00:25.152Z,100.00
2019-04-14T23:03:29.156Z,100.00
2019-04-14T23:06:54.591Z,100.00
2019-04-14T23:09:54.432Z,100.00
2019-04-14T23:13:13.909Z,100.00
2019-04-14T23:16:15.818Z,100.00
2019-04-14T23:19:35.488Z,100.00
2019-04-14T23:37:10.647Z,100.00
2019-04-14T23:41:16.702Z,100.00
2019-04-14T23:49:03.567Z,100.00
